Time;durP1;ratioP1;P1;durP2;ratioP2;P2;SDS_P1;SDS_P2;PMS_P1;PMS_P2;Temp;Humidity;BMP_temperature;BMP_pressure;BME280_temperature;BME280_humidity;BME280_pressure;Samples;Min_cycle;Max_cycle;Signal;HPM_P1;HPM_P2
2022/04/30 00:02:10;;;;;;;3.60;3.03;;;17.70;61.10;;;;;;5063654;28;20047;-61
2022/04/30 00:04:36;;;;;;;2.80;2.60;;;17.70;61.10;;;;;;5032932;28;20032;-62
2022/04/30 00:07:03;;;;;;;3.40;3.00;;;17.70;61.30;;;;;;5065961;28;20429;-61
2022/04/30 00:09:28;;;;;;;3.20;2.80;;;17.70;61.40;;;;;;5050183;28;20035;-62
2022/04/30 00:11:54;;;;;;;3.42;2.97;;;17.60;61.40;;;;;;5063870;28;20455;-62
2022/04/30 00:14:19;;;;;;;3.65;2.70;;;17.60;61.80;;;;;;5084335;28;20129;-62
2022/04/30 00:16:45;;;;;;;4.53;2.97;;;17.60;61.90;;;;;;5083957;28;20032;-62
2022/04/30 00:19:10;;;;;;;5.10;2.80;;;17.60;61.80;;;;;;5064095;28;20032;-62
2022/04/30 00:21:36;;;;;;;3.60;2.90;;;17.60;61.90;;;;;;5084723;28;20027;-62
2022/04/30 00:24:02;;;;;;;3.78;2.83;;;17.50;62.00;;;;;;5046418;28;20035;-62
2022/04/30 00:26:27;;;;;;;5.25;2.90;;;17.50;62.50;;;;;;5077245;28;20560;-62
2022/04/30 00:28:53;;;;;;;4.78;3.13;;;17.50;62.30;;;;;;5064497;28;20036;-62
2022/04/30 00:31:18;;;;;;;6.97;3.05;;;17.50;62.30;;;;;;5083231;28;20118;-62
2022/04/30 00:33:48;;;;;;;4.30;2.83;;;17.40;62.30;;;;;;5062542;28;20047;-61
2022/04/30 00:36:14;;;;;;;3.17;2.88;;;17.40;62.50;;;;;;5051115;28;20344;-61
2022/04/30 00:38:40;;;;;;;2.80;2.60;;;17.40;62.60;;;;;;5064274;28;20028;-61
2022/04/30 00:41:09;;;;;;;3.80;2.97;;;17.40;62.80;;;;;;5039219;28;20962;-61
2022/04/30 00:43:44;;;;;;;6.07;3.10;;;17.40;62.90;;;;;;5084062;28;20143;-61
2022/04/30 00:46:13;;;;;;;;;;;17.30;62.90;;;;;;5063527;28;20032;-61
2022/04/30 00:48:39;;;;;;;4.25;2.85;;;17.30;63.20;;;;;;5060103;28;19912;-61
2022/04/30 00:51:06;;;;;;;3.85;2.88;;;17.30;63.10;;;;;;5050743;28;20057;-61
2022/04/30 00:53:32;;;;;;;3.33;3.03;;;17.30;63.80;;;;;;5050572;28;20028;-62
2022/04/30 00:55:57;;;;;;;5.40;2.75;;;17.30;63.20;;;;;;5049638;28;20557;-60
2022/04/30 00:58:23;;;;;;;3.33;2.70;;;17.20;63.20;;;;;;5048832;28;20401;-61
2022/04/30 01:00:49;;;;;;;3.58;2.58;;;17.20;63.30;;;;;;5048398;28;20020;-61
2022/04/30 01:03:14;;;;;;;4.30;2.95;;;17.20;63.60;;;;;;5048997;28;20551;-61
2022/04/30 01:05:40;;;;;;;4.38;2.78;;;17.20;63.80;;;;;;5082263;28;20063;-61
2022/04/30 01:08:05;;;;;;;3.35;2.45;;;17.10;63.80;;;;;;5059755;28;20107;-61
2022/04/30 01:10:32;;;;;;;4.65;2.67;;;17.10;63.70;;;;;;5083084;28;20078;-61
2022/04/30 01:12:58;;;;;;;3.10;2.80;;;17.10;63.80;;;;;;5061373;28;20036;-61
2022/04/30 01:15:24;;;;;;;2.92;2.45;;;17.10;64.00;;;;;;5060189;28;20032;-61
2022/04/30 01:17:49;;;;;;;3.13;2.75;;;17.10;64.00;;;;;;5058072;28;20782;-61
2022/04/30 01:20:15;;;;;;;3.63;2.78;;;17.00;64.00;;;;;;5062462;28;20016;-61
2022/04/30 01:22:55;;;;;;;3.65;3.03;;;17.00;64.10;;;;;;5083265;28;20028;-60
2022/04/30 01:25:20;;;;;;;4.20;2.83;;;17.00;64.30;;;;;;5057790;28;20021;-61
2022/04/30 01:27:46;;;;;;;5.53;2.60;;;17.00;64.40;;;;;;5049702;28;20028;-61
2022/04/30 01:30:13;;;;;;;4.20;3.05;;;16.90;64.80;;;;;;5060820;28;20393;-61
2022/04/30 01:38:08;;;;;;;3.05;2.70;;;16.90;65.10;;;;;;5083219;28;20065;-61
2022/04/30 01:40:33;;;;;;;3.53;2.72;;;16.80;65.00;;;;;;5061791;28;20032;-61
2022/04/30 01:43:01;;;;;;;2.90;2.60;;;16.80;65.00;;;;;;5047164;28;20128;-60
2022/04/30 01:45:27;;;;;;;4.63;2.90;;;16.80;65.00;;;;;;5080103;28;20044;-61
2022/04/30 01:47:53;;;;;;;2.80;2.60;;;16.80;65.30;;;;;;5056143;28;20034;-61
2022/04/30 01:50:18;;;;;;;3.40;3.05;;;16.80;65.40;;;;;;5057026;28;21147;-61
2022/04/30 01:52:44;;;;;;;4.25;2.80;;;16.80;65.50;;;;;;5059141;28;20052;-61
2022/04/30 01:55:10;;;;;;;2.55;2.35;;;16.70;65.60;;;;;;5057666;28;20075;-61
2022/04/30 01:57:38;;;;;;;5.97;3.53;;;16.70;65.60;;;;;;5062766;28;20035;-61
2022/04/30 02:00:05;;;;;;;3.03;2.72;;;16.70;65.70;;;;;;5058936;28;20118;-62
2022/04/30 02:02:34;;;;;;;3.58;2.60;;;16.70;65.70;;;;;;5059471;28;20525;-62
2022/04/30 02:05:01;;;;;;;5.95;3.00;;;16.60;65.90;;;;;;5055413;28;20612;-60
2022/04/30 02:07:27;;;;;;;3.28;2.80;;;16.60;66.10;;;;;;5079949;28;20032;-61
2022/04/30 02:09:52;;;;;;;4.30;2.80;;;16.60;66.20;;;;;;5060059;28;20032;-61
2022/04/30 02:12:18;;;;;;;3.88;3.20;;;16.70;66.30;;;;;;5082643;28;20024;-61
2022/04/30 02:14:48;;;;;;;3.03;2.58;;;16.60;66.30;;;;;;5081998;28;20145;-61
2022/04/30 02:17:13;;;;;;;4.57;3.08;;;16.60;66.40;;;;;;5081491;28;20056;-61
2022/04/30 02:22:23;;;;;;;2.97;2.70;;;16.60;66.50;;;;;;5052558;28;20104;-61
2022/04/30 02:24:49;;;;;;;4.13;2.88;;;16.60;66.70;;;;;;5080099;28;20111;-61
2022/04/30 02:27:15;;;;;;;3.20;2.60;;;16.60;66.70;;;;;;5055579;28;20314;-60
2022/04/30 02:29:40;;;;;;;3.13;2.75;;;16.50;66.80;;;;;;5079637;28;20115;-61
2022/04/30 02:32:06;;;;;;;3.08;2.80;;;16.50;66.80;;;;;;5081868;28;20028;-62
2022/04/30 02:34:35;;;;;;;3.00;2.80;;;16.50;67.00;;;;;;5082074;28;20587;-60
2022/04/30 02:37:03;;;;;;;4.05;2.95;;;16.50;67.00;;;;;;5081528;28;20138;-61
2022/04/30 02:39:29;;;;;;;3.00;2.70;;;16.50;67.20;;;;;;5050642;28;20023;-61
2022/04/30 02:41:55;;;;;;;3.22;2.75;;;16.50;67.30;;;;;;5081844;28;20380;-61
2022/04/30 02:44:20;;;;;;;4.05;3.03;;;16.40;67.30;;;;;;5057304;28;20064;-60
2022/04/30 02:46:46;;;;;;;3.60;2.80;;;16.40;67.30;;;;;;5079396;28;20100;-61
2022/04/30 02:49:11;;;;;;;2.88;2.50;;;16.40;67.30;;;;;;5083113;28;20035;-60
2022/04/30 02:51:37;;;;;;;4.60;2.97;;;16.40;67.70;;;;;;5086301;28;20505;-61
2022/04/30 02:54:02;;;;;;;3.08;2.80;;;16.40;67.70;;;;;;5085807;28;20640;-61
2022/04/30 02:56:28;;;;;;;3.20;2.90;;;16.30;68.50;;;;;;5084353;28;20487;-60
2022/04/30 03:01:37;;;;;;;3.10;2.80;;;16.30;68.30;;;;;;5085150;28;20434;-61
2022/04/30 03:04:03;;;;;;;3.10;2.47;;;16.30;68.30;;;;;;5078424;28;20528;-61
2022/04/30 03:06:32;;;;;;;3.03;2.72;;;16.30;68.30;;;;;;5082743;28;20168;-61
2022/04/30 03:08:58;;;;;;;5.32;2.88;;;16.30;68.30;;;;;;5068727;28;20361;-60
2022/04/30 03:11:23;;;;;;;5.30;2.78;;;16.30;68.40;;;;;;5078562;28;20438;-62
2022/04/30 03:13:49;;;;;;;4.50;3.22;;;16.20;68.50;;;;;;5066362;28;20109;-61
2022/04/30 03:21:45;;;;;;;2.85;2.65;;;16.20;68.60;;;;;;5079402;28;20341;-61
2022/04/30 03:24:15;;;;;;;3.15;2.65;;;16.20;68.60;;;;;;5063117;28;20047;-61
2022/04/30 03:26:43;;;;;;;3.50;2.92;;;16.20;68.70;;;;;;5085177;28;20031;-61
2022/04/30 03:29:09;;;;;;;3.63;3.10;;;16.20;68.90;;;;;;5084882;28;20074;-61
2022/04/30 03:31:34;;;;;;;4.47;3.20;;;16.20;68.90;;;;;;5066328;28;20043;-61
2022/04/30 03:34:01;;;;;;;3.35;3.00;;;16.10;69.10;;;;;;5083832;28;20028;-61
2022/04/30 03:36:27;;;;;;;3.15;2.85;;;16.10;69.10;;;;;;5049843;28;20043;-60
2022/04/30 03:38:53;;;;;;;4.68;3.00;;;16.10;69.10;;;;;;5067758;28;20509;-60
2022/04/30 03:41:18;;;;;;;3.33;2.80;;;16.10;69.20;;;;;;5068869;28;20065;-61
2022/04/30 03:43:44;;;;;;;2.63;2.42;;;16.10;69.30;;;;;;5075451;28;20077;-60
2022/04/30 03:46:09;;;;;;;2.95;2.67;;;16.10;69.20;;;;;;5078294;28;20370;-61
2022/04/30 03:48:35;;;;;;;5.50;3.17;;;16.10;69.20;;;;;;5067913;28;20423;-61
2022/04/30 03:51:00;;;;;;;2.90;2.63;;;16.10;69.40;;;;;;5085557;28;20028;-61
2022/04/30 03:53:26;;;;;;;3.15;2.72;;;16.10;69.40;;;;;;5050409;28;20032;-61
2022/04/30 03:55:53;;;;;;;4.32;2.67;;;16.10;69.50;;;;;;5083451;28;20503;-60
2022/04/30 03:58:18;;;;;;;3.63;2.70;;;16.10;69.70;;;;;;5083883;28;20093;-62
2022/04/30 04:00:46;;;;;;;3.35;3.05;;;16.00;69.60;;;;;;5083731;28;20028;-61
2022/04/30 04:03:11;;;;;;;2.92;2.70;;;15.80;69.40;;;;;;5046778;28;20060;-61
2022/04/30 04:05:38;;;;;;;4.13;2.90;;;16.00;69.50;;;;;;5046576;28;20457;-61
2022/04/30 04:08:10;;;;;;;2.53;2.33;;;16.00;69.60;;;;;;5029015;28;20422;-61
2022/04/30 04:10:36;;;;;;;3.67;2.60;;;16.00;69.60;;;;;;5063706;28;20104;-60
2022/04/30 04:18:29;;;;;;;2.90;2.63;;;16.00;69.90;;;;;;5064459;28;20059;-61
2022/04/30 04:20:55;;;;;;;4.68;2.90;;;15.90;70.10;;;;;;5064820;28;20076;-60
2022/04/30 04:23:20;;;;;;;2.95;2.30;;;15.90;70.10;;;;;;5061342;28;20455;-61
2022/04/30 04:26:01;;;;;;;3.17;2.80;;;15.90;70.10;;;;;;5063001;28;20028;-61
2022/04/30 04:28:27;;;;;;;5.60;2.70;;;15.90;70.20;;;;;;5064455;28;20732;-61
2022/04/30 04:30:53;;;;;;;2.53;2.30;;;15.90;70.20;;;;;;5062786;28;20028;-61
2022/04/30 04:33:18;;;;;;;3.33;2.88;;;15.90;70.20;;;;;;5064436;28;20389;-61
2022/04/30 04:35:44;;;;;;;2.92;2.63;;;16.00;70.40;;;;;;5062638;28;20082;-61
2022/04/30 04:38:09;;;;;;;3.55;2.78;;;15.90;70.40;;;;;;5064326;28;20094;-61
2022/04/30 04:40:35;;;;;;;3.58;3.28;;;15.90;70.60;;;;;;5063163;28;20550;-60
2022/04/30 04:43:00;;;;;;;5.38;3.05;;;15.90;70.60;;;;;;5063275;28;20496;-61
2022/04/30 04:45:27;;;;;;;3.47;2.90;;;15.90;70.60;;;;;;5045417;28;20115;-60
2022/04/30 04:47:52;;;;;;;3.67;2.88;;;15.80;70.70;;;;;;5064079;28;20035;-61
2022/04/30 04:50:18;;;;;;;3.90;3.15;;;15.80;70.80;;;;;;5045233;28;20032;-61
2022/04/30 04:52:44;;;;;;;3.83;2.92;;;15.80;70.70;;;;;;5029257;28;20028;-66
2022/04/30 04:55:10;;;;;;;3.90;2.80;;;15.80;70.80;;;;;;5044374;28;20037;-61
2022/04/30 04:57:36;;;;;;;3.33;2.78;;;15.80;70.70;;;;;;5044991;28;20147;-61
2022/04/30 05:00:03;;;;;;;3.97;2.70;;;15.80;70.70;;;;;;5063054;28;20099;-61
2022/04/30 05:02:28;;;;;;;4.70;2.85;;;15.80;70.80;;;;;;5053317;28;20385;-60
2022/04/30 05:04:54;;;;;;;3.50;2.90;;;15.80;70.80;;;;;;5057442;28;20062;-61
2022/04/30 05:07:20;;;;;;;3.35;3.03;;;15.80;70.70;;;;;;5082812;28;20035;-60
2022/04/30 05:09:45;;;;;;;3.97;2.95;;;15.80;70.90;;;;;;5082935;28;20020;-61
2022/04/30 05:12:12;;;;;;;3.20;2.90;;;15.70;70.90;;;;;;5084872;28;20032;-61
2022/04/30 05:14:37;;;;;;;4.25;2.80;;;15.70;70.90;;;;;;5063226;28;20138;-61
2022/04/30 05:17:04;;;;;;;4.85;2.78;;;15.70;70.90;;;;;;5056987;28;20607;-60
2022/04/30 05:19:30;;;;;;;3.15;2.80;;;15.70;71.10;;;;;;5031000;28;20029;-61
2022/04/30 05:21:55;;;;;;;2.97;2.65;;;15.70;71.10;;;;;;5082883;28;20591;-61
2022/04/30 05:24:21;;;;;;;4.72;2.65;;;15.70;71.00;;;;;;5082095;28;20024;-61
2022/04/30 05:26:49;;;;;;;3.92;2.38;;;15.70;71.00;;;;;;5082796;28;20107;-61
2022/04/30 05:29:16;;;;;;;3.45;2.58;;;15.70;71.00;;;;;;5080687;28;20069;-61
2022/04/30 05:31:41;;;;;;;2.88;2.55;;;15.60;71.30;;;;;;5063400;28;20176;-61
2022/04/30 05:34:07;;;;;;;3.42;3.13;;;15.60;71.60;;;;;;5062984;28;20123;-61
2022/04/30 05:36:32;;;;;;;3.10;2.80;;;15.60;71.80;;;;;;5082550;28;20047;-61
2022/04/30 05:38:59;;;;;;;3.83;3.00;;;15.60;71.90;;;;;;5057738;28;20039;-61
2022/04/30 05:41:25;;;;;;;2.63;2.40;;;15.60;71.90;;;;;;5083914;28;20016;-60
2022/04/30 05:43:50;;;;;;;4.60;2.70;;;15.80;71.90;;;;;;5081673;28;20341;-61
2022/04/30 05:46:16;;;;;;;4.65;3.08;;;15.60;71.70;;;;;;5060348;28;20024;-60
2022/04/30 05:48:41;;;;;;;4.03;2.83;;;15.60;71.80;;;;;;5081341;28;20034;-60
2022/04/30 05:51:07;;;;;;;3.90;2.95;;;15.60;71.70;;;;;;5081534;28;20048;-61
2022/04/30 05:53:32;;;;;;;3.20;2.90;;;15.60;71.70;;;;;;5037634;28;20044;-60
2022/04/30 05:55:58;;;;;;;2.70;2.38;;;15.60;71.80;;;;;;5081771;28;20016;-61
2022/04/30 05:58:24;;;;;;;2.65;2.45;;;15.60;71.90;;;;;;5061680;28;20494;-61
2022/04/30 06:00:49;;;;;;;3.97;3.10;;;15.60;71.80;;;;;;5058368;28;20130;-61
2022/04/30 06:03:15;;;;;;;3.35;2.70;;;15.60;71.70;;;;;;5081532;28;20499;-61
2022/04/30 06:05:41;;;;;;;3.17;2.80;;;15.60;72.10;;;;;;5058250;28;20039;-60
2022/04/30 06:08:07;;;;;;;3.33;2.78;;;15.60;72.20;;;;;;5082235;28;20051;-60
2022/04/30 06:10:32;;;;;;;3.10;2.80;;;15.80;72.30;;;;;;5080297;28;20051;-61
2022/04/30 06:12:58;;;;;;;4.25;2.90;;;15.50;72.20;;;;;;5062446;28;20051;-61
2022/04/30 06:15:23;;;;;;;3.58;2.63;;;15.50;72.00;;;;;;5079808;28;20070;-60
2022/04/30 06:17:49;;;;;;;5.13;2.85;;;15.50;72.20;;;;;;5061686;28;20387;-60
2022/04/30 06:20:14;;;;;;;3.30;2.83;;;15.50;72.30;;;;;;5080241;28;20051;-61
2022/04/30 06:22:40;;;;;;;5.57;2.58;;;15.50;72.30;;;;;;5045690;28;20051;-60
2022/04/30 06:25:06;;;;;;;4.55;2.83;;;15.50;72.50;;;;;;5080825;28;20376;-61
2022/04/30 06:27:32;;;;;;;3.75;3.20;;;15.60;72.40;;;;;;5058180;28;20062;-60
2022/04/30 06:29:59;;;;;;;3.55;3.03;;;15.50;72.70;;;;;;5054972;28;20031;-61
2022/04/30 06:32:24;;;;;;;7.32;2.70;;;15.60;73.10;;;;;;5060038;28;20104;-61
2022/04/30 06:34:50;;;;;;;4.97;3.10;;;15.50;73.30;;;;;;5044774;28;20458;-61
2022/04/30 06:37:16;;;;;;;5.72;3.25;;;15.60;73.40;;;;;;5047140;28;20119;-60
2022/04/30 06:39:42;;;;;;;3.95;2.88;;;15.50;73.40;;;;;;5077896;28;20036;-60
2022/04/30 06:42:08;;;;;;;3.80;3.05;;;15.50;73.50;;;;;;5079618;28;20024;-61
2022/04/30 06:44:35;;;;;;;6.05;3.35;;;15.50;73.60;;;;;;5080844;28;20470;-61
2022/04/30 06:47:00;;;;;;;3.70;3.10;;;15.50;73.80;;;;;;5033691;28;20036;-61
2022/04/30 06:49:26;;;;;;;5.80;3.17;;;15.60;74.10;;;;;;5046880;28;20042;-61
2022/04/30 06:51:51;;;;;;;8.27;3.30;;;15.60;74.20;;;;;;5081716;28;20047;-61
2022/04/30 06:57:08;;;;;;;5.03;2.85;;;15.60;74.60;;;;;;5079367;28;20073;-61
2022/04/30 06:59:41;;;;;;;11.23;3.80;;;15.60;74.60;;;;;;5073350;28;20094;-60
2022/04/30 07:02:17;;;;;;;13.05;3.40;;;15.60;74.80;;;;;;5077291;28;20044;-61
2022/04/30 07:04:42;;;;;;;8.43;3.83;;;15.70;75.30;;;;;;5061845;28;20046;-62
2022/04/30 07:07:09;;;;;;;9.57;3.75;;;15.70;75.50;;;;;;5079845;28;20826;-60
2022/04/30 07:09:35;;;;;;;8.35;3.38;;;15.70;75.20;;;;;;5057780;28;20400;-60
2022/04/30 07:12:09;;;;;;;13.77;4.35;;;15.70;75.30;;;;;;5061548;28;20036;-60
2022/04/30 07:14:36;;;;;;;8.07;3.08;;;15.70;75.50;;;;;;5051688;28;20055;-61
2022/04/30 07:17:06;;;;;;;8.98;3.50;;;15.70;75.50;;;;;;5076757;28;20021;-61
2022/04/30 07:19:32;;;;;;;9.07;3.25;;;15.80;75.30;;;;;;5078423;28;20162;-60
2022/04/30 07:21:57;;;;;;;8.15;3.65;;;15.80;75.20;;;;;;5057996;28;20118;-61
2022/04/30 07:24:23;;;;;;;8.80;3.63;;;15.80;74.90;;;;;;5080144;28;20050;-60
2022/04/30 07:26:48;;;;;;;11.98;4.32;;;15.80;75.00;;;;;;5061280;28;20028;-60
2022/04/30 07:29:14;;;;;;;10.27;3.88;;;15.80;75.10;;;;;;5046058;28;20032;-61
2022/04/30 07:31:39;;;;;;;20.50;3.90;;;15.90;75.70;;;;;;5079320;28;20024;-61
2022/04/30 07:34:05;;;;;;;12.15;4.00;;;15.90;75.60;;;;;;5055622;28;20052;-61
2022/04/30 07:36:31;;;;;;;14.55;4.60;;;15.90;75.40;;;;;;5074692;28;20059;-61
2022/04/30 07:38:57;;;;;;;18.98;4.78;;;15.90;75.80;;;;;;5080287;28;20021;-60
2022/04/30 07:41:23;;;;;;;12.73;4.45;;;15.90;75.50;;;;;;5079743;28;20067;-61
2022/04/30 07:43:49;;;;;;;14.30;4.32;;;16.00;75.40;;;;;;5059660;28;20444;-61
2022/04/30 07:46:15;;;;;;;20.48;4.68;;;15.80;75.40;;;;;;5057832;28;20039;-61
2022/04/30 07:48:40;;;;;;;17.58;5.15;;;16.00;75.90;;;;;;5035308;28;20494;-61
2022/04/30 07:51:13;;;;;;;17.30;5.00;;;16.10;75.90;;;;;;5056574;28;20036;-61
2022/04/30 07:53:39;;;;;;;46.53;6.15;;;16.10;75.90;;;;;;5058536;28;20512;-61
2022/04/30 07:56:05;;;;;;;18.83;4.95;;;16.10;76.00;;;;;;5074660;28;20031;-61
2022/04/30 07:58:30;;;;;;;27.20;5.28;;;16.20;76.00;;;;;;5079302;28;20040;-62
2022/04/30 08:00:56;;;;;;;24.77;5.90;;;16.20;75.90;;;;;;5080063;28;20093;-61
2022/04/30 08:03:21;;;;;;;28.63;6.53;;;16.30;76.00;;;;;;5075768;28;20127;-61
2022/04/30 08:05:47;;;;;;;25.85;6.00;;;16.30;76.50;;;;;;5079601;28;20494;-61
2022/04/30 08:08:13;;;;;;;28.42;6.47;;;16.30;76.50;;;;;;5076610;28;20042;-62
2022/04/30 08:10:38;;;;;;;32.67;6.05;;;16.30;76.40;;;;;;5044516;28;20308;-61
2022/04/30 08:13:05;;;;;;;17.67;6.00;;;16.40;76.60;;;;;;5061275;28;20067;-61
2022/04/30 08:15:31;;;;;;;22.77;5.75;;;16.40;76.60;;;;;;5075061;28;20031;-61
2022/04/30 08:17:57;;;;;;;39.63;7.30;;;16.50;77.10;;;;;;5076046;28;20020;-61
2022/04/30 08:20:22;;;;;;;22.33;6.82;;;16.50;77.50;;;;;;5076166;28;20036;-61
2022/04/30 08:22:48;;;;;;;28.20;6.43;;;16.50;77.70;;;;;;5059394;28;20028;-60
2022/04/30 08:25:14;;;;;;;28.83;6.63;;;16.60;77.70;;;;;;5058248;28;20708;-61
2022/04/30 08:27:40;;;;;;;26.70;6.15;;;16.60;77.80;;;;;;5079619;28;20139;-62
2022/04/30 08:30:07;;;;;;;25.65;5.63;;;16.60;77.80;;;;;;5079125;28;20447;-61
2022/04/30 08:32:32;;;;;;;32.45;6.35;;;16.60;77.80;;;;;;5058603;28;20139;-61
2022/04/30 08:34:59;;;;;;;21.15;5.57;;;16.60;78.10;;;;;;5058733;28;20620;-61
2022/04/30 08:37:26;;;;;;;26.83;6.00;;;16.70;78.10;;;;;;5081443;28;20035;-61
2022/04/30 08:39:51;;;;;;;22.50;6.43;;;16.70;78.30;;;;;;5081042;28;20041;-62
2022/04/30 08:42:18;;;;;;;22.98;6.00;;;16.70;78.20;;;;;;5062249;28;20020;-62
2022/04/30 08:44:43;;;;;;;26.77;6.93;;;16.70;78.30;;;;;;5058969;28;20077;-61
2022/04/30 08:47:11;;;;;;;38.53;6.97;;;16.70;78.10;;;;;;5074943;28;20039;-62
2022/04/30 08:49:41;;;;;;;26.05;6.47;;;16.80;78.40;;;;;;5040150;28;20021;-61
2022/04/30 08:52:07;;;;;;;33.60;7.93;;;16.80;78.80;;;;;;5060638;28;20031;-61
2022/04/30 08:54:32;;;;;;;46.60;8.45;;;16.80;78.90;;;;;;5079264;28;20097;-61
2022/04/30 08:56:58;;;;;;;54.92;9.55;;;16.80;79.30;;;;;;5062174;28;20028;-61
2022/04/30 08:59:23;;;;;;;41.17;9.25;;;16.90;79.50;;;;;;5058729;28;20104;-62
2022/04/30 09:01:53;;;;;;;43.33;9.07;;;16.90;79.20;;;;;;5070996;28;20041;-61
2022/04/30 09:04:19;;;;;;;47.33;8.82;;;16.90;79.50;;;;;;5030948;28;20719;-62
2022/04/30 09:06:55;;;;;;;53.95;8.80;;;17.00;79.50;;;;;;5023713;28;20029;-61
2022/04/30 09:09:30;;;;;;;;;;;17.00;79.20;;;;;;5032891;28;20107;-62
2022/04/30 09:12:06;;;;;;;76.55;9.18;;;17.00;79.10;;;;;;5039494;28;19970;-62
2022/04/30 09:14:31;;;;;;;50.15;8.43;;;17.10;79.00;;;;;;5039054;28;20048;-62
2022/04/30 09:17:07;;;;;;;59.28;9.18;;;17.10;78.80;;;;;;5058690;28;20081;-62
2022/04/30 09:19:36;;;;;;;77.78;10.18;;;17.10;78.70;;;;;;5040091;28;20112;-62
2022/04/30 09:22:01;;;;;;;89.03;11.80;;;17.10;78.70;;;;;;5018384;28;20040;-61
2022/04/30 09:24:27;;;;;;;78.30;12.95;;;17.20;78.70;;;;;;5024465;28;20028;-62
2022/04/30 09:26:55;;;;;;;78.53;12.48;;;17.20;78.40;;;;;;5025860;28;20048;-61
2022/04/30 09:29:23;;;;;;;107.65;13.25;;;17.30;78.30;;;;;;5058901;28;20033;-62
2022/04/30 09:31:50;;;;;;;363.60;167.15;;;17.30;78.10;;;;;;5040118;28;20037;-61
2022/04/30 09:39:46;;;;;;;1999.90;999.90;;;17.50;78.60;;;;;;5036488;28;20086;-64
2022/04/30 09:42:12;;;;;;;1999.90;871.53;;;17.60;78.40;;;;;;5039352;28;20708;-62
2022/04/30 09:44:38;;;;;;;1718.47;738.85;;;17.70;77.60;;;;;;5055313;28;20384;-62
2022/04/30 09:47:07;;;;;;;741.45;324.02;;;17.70;77.00;;;;;;5053818;28;20082;-62
2022/04/30 09:55:06;;;;;;;380.63;136.75;;;17.70;76.80;;;;;;5003542;28;20486;-62
2022/04/30 09:57:34;;;;;;;227.40;84.90;;;17.70;76.00;;;;;;5012844;28;20017;-62
2022/04/30 10:00:00;;;;;;;205.88;69.38;;;17.70;74.80;;;;;;5040531;28;20024;-63
2022/04/30 10:02:26;;;;;;;120.63;42.47;;;17.60;74.80;;;;;;5009122;28;1020843;-62
2022/04/30 10:04:51;;;;;;;140.77;44.00;;;17.70;75.70;;;;;;5050505;28;20070;-62
2022/04/30 10:07:19;;;;;;;93.85;34.33;;;17.60;77.30;;;;;;5025064;28;20177;-62
2022/04/30 10:09:58;;;;;;;66.65;29.38;;;17.60;76.00;;;;;;5078935;28;20035;-62
2022/04/30 10:12:33;;;;;;;64.68;25.65;;;17.70;75.60;;;;;;5041354;28;20054;-62
2022/04/30 10:15:14;;;;;;;60.20;25.45;;;17.50;75.00;;;;;;5055673;28;20028;-62
2022/04/30 10:17:42;;;;;;;53.03;21.35;;;17.60;74.90;;;;;;5035905;28;20040;-62
2022/04/30 10:20:15;;;;;;;42.42;20.48;;;17.50;74.60;;;;;;5058306;28;20557;-62
2022/04/30 10:22:59;;;;;;;47.75;16.60;;;17.60;74.60;;;;;;5043234;28;20395;-62
2022/04/30 10:25:42;;;;;;;18.55;10.80;;;17.50;74.60;;;;;;5058256;28;20024;-62
2022/04/30 10:28:16;;;;;;;25.80;11.35;;;17.60;74.10;;;;;;5041675;28;20031;-63
2022/04/30 10:30:43;;;;;;;28.15;11.90;;;17.60;73.50;;;;;;5052830;28;20016;-62
2022/04/30 10:33:08;;;;;;;28.20;10.07;;;17.60;73.00;;;;;;5068819;28;20036;-63
2022/04/30 10:35:35;;;;;;;28.88;11.73;;;17.60;72.80;;;;;;5071250;28;20072;-62
2022/04/30 10:38:11;;;;;;;32.22;10.82;;;17.60;72.60;;;;;;5035530;28;20028;-62
2022/04/30 10:40:37;;;;;;;;;;;17.60;72.60;;;;;;5057670;28;20198;-63
2022/04/30 10:43:02;;;;;;;26.10;9.73;;;17.70;72.30;;;;;;5073040;28;20027;-63
2022/04/30 10:45:28;;;;;;;17.55;9.18;;;17.70;72.20;;;;;;5020261;28;20040;-62
2022/04/30 10:47:55;;;;;;;23.02;8.88;;;17.70;71.80;;;;;;5040637;28;20054;-62
2022/04/30 10:50:21;;;;;;;23.48;8.43;;;17.70;71.60;;;;;;5054579;28;20765;-64
2022/04/30 10:52:50;;;;;;;21.42;7.30;;;17.70;71.50;;;;;;5053589;28;20048;-61
2022/04/30 10:55:16;;;;;;;18.75;7.43;;;17.80;71.90;;;;;;5038007;28;20048;-62
2022/04/30 10:57:42;;;;;;;15.70;7.60;;;17.70;72.10;;;;;;5057018;28;20143;-64
2022/04/30 11:00:08;;;;;;;13.35;6.72;;;17.70;72.30;;;;;;5074091;28;20024;-63
2022/04/30 11:02:34;;;;;;;12.63;6.90;;;17.70;72.30;;;;;;5041588;28;20699;-62
2022/04/30 11:05:00;;;;;;;16.25;6.63;;;17.80;72.40;;;;;;5056062;28;20165;-63
2022/04/30 11:07:26;;;;;;;14.68;7.03;;;17.80;72.40;;;;;;5061897;28;20028;-63
2022/04/30 11:09:52;;;;;;;21.05;7.30;;;17.90;72.30;;;;;;5057402;28;20024;-62
2022/04/30 11:12:17;;;;;;;19.25;7.15;;;18.00;72.20;;;;;;5080834;28;20039;-62
2022/04/30 11:14:46;;;;;;;24.30;7.15;;;17.90;71.80;;;;;;5046896;28;20028;-63
2022/04/30 11:17:12;;;;;;;13.25;6.60;;;18.00;71.70;;;;;;5050098;28;20130;-63
2022/04/30 11:19:41;;;;;;;19.45;6.53;;;18.10;71.60;;;;;;5044663;28;20048;-63
2022/04/30 11:22:08;;;;;;;24.40;7.10;;;18.10;71.50;;;;;;5048435;28;20055;-63
2022/04/30 11:24:33;;;;;;;19.30;6.90;;;18.20;71.40;;;;;;5063227;28;20032;-62
2022/04/30 11:27:00;;;;;;;25.38;7.75;;;18.30;71.30;;;;;;5056489;28;20040;-63
2022/04/30 11:29:26;;;;;;;19.17;6.65;;;18.40;71.10;;;;;;5048273;28;20470;-63
2022/04/30 11:31:52;;;;;;;25.08;7.75;;;18.40;70.80;;;;;;5059607;28;20097;-63
2022/04/30 11:34:18;;;;;;;23.30;6.60;;;18.40;70.70;;;;;;5064422;28;20131;-64
2022/04/30 11:36:47;;;;;;;20.25;6.38;;;18.40;70.20;;;;;;5045860;28;20047;-62
2022/04/30 11:39:13;;;;;;;20.75;6.70;;;18.40;70.00;;;;;;5045214;28;20028;-63
2022/04/30 11:41:48;;;;;;;16.52;6.90;;;18.30;69.90;;;;;;5043968;28;20047;-63
2022/04/30 11:44:15;;;;;;;30.85;7.20;;;18.40;69.60;;;;;;5049502;28;20058;-63
2022/04/30 11:46:41;;;;;;;27.90;7.97;;;18.50;69.40;;;;;;5083137;28;20151;-62
2022/04/30 11:49:10;;;;;;;25.10;7.45;;;18.50;69.30;;;;;;5079449;28;20332;-62
2022/04/30 11:51:36;;;;;;;16.42;6.78;;;18.50;69.50;;;;;;5030108;28;20417;-63
2022/04/30 11:54:12;;;;;;;24.77;7.25;;;18.50;69.60;;;;;;5042420;28;20115;-62
2022/04/30 11:56:38;;;;;;;17.13;6.60;;;18.50;69.30;;;;;;5028130;28;20116;-64
2022/04/30 11:59:04;;;;;;;19.15;6.07;;;18.50;70.20;;;;;;5045196;28;20028;-63
2022/04/30 12:01:30;;;;;;;20.70;6.43;;;18.50;69.40;;;;;;5028715;28;20044;-63
2022/04/30 12:04:04;;;;;;;21.90;5.65;;;18.50;69.00;;;;;;5044720;28;20355;-63
2022/04/30 12:06:30;;;;;;;17.25;5.22;;;18.40;68.80;;;;;;5078205;28;20031;-63
2022/04/30 12:08:56;;;;;;;19.20;5.05;;;18.40;68.10;;;;;;5057411;28;20412;-63
2022/04/30 12:11:21;;;;;;;14.70;5.22;;;18.40;68.10;;;;;;5057907;28;20143;-62
2022/04/30 12:14:03;;;;;;;17.33;4.90;;;18.40;68.00;;;;;;5076187;28;20032;-63
2022/04/30 12:16:36;;;;;;;20.55;4.95;;;18.40;68.00;;;;;;5056230;28;20027;-63
2022/04/30 12:24:45;;;;;;;27.50;5.45;;;18.40;67.80;;;;;;5051022;28;20100;-62
2022/04/30 12:27:19;;;;;;;24.08;5.40;;;18.50;67.90;;;;;;5077266;28;20035;-63
2022/04/30 12:29:44;;;;;;;22.15;5.00;;;18.50;67.80;;;;;;5041381;28;20422;-63
2022/04/30 12:32:10;;;;;;;9.25;3.95;;;18.50;67.80;;;;;;5078263;28;20154;-63
2022/04/30 12:34:39;;;;;;;19.65;4.75;;;18.50;67.70;;;;;;5046766;28;20027;-64
2022/04/30 12:37:05;;;;;;;17.73;5.63;;;18.50;67.50;;;;;;5042815;28;20106;-62
2022/04/30 12:39:30;;;;;;;22.17;5.22;;;18.50;67.40;;;;;;5059594;28;20394;-62
2022/04/30 12:41:59;;;;;;;18.20;5.55;;;18.50;67.30;;;;;;5041465;28;20669;-63
2022/04/30 12:44:25;;;;;;;27.60;5.80;;;18.50;67.30;;;;;;5080587;28;20028;-62
2022/04/30 12:46:51;;;;;;;27.38;6.50;;;18.50;67.30;;;;;;5060769;28;20048;-63
2022/04/30 12:49:17;;;;;;;24.95;5.90;;;18.50;67.50;;;;;;5058171;28;20052;-64
2022/04/30 12:51:43;;;;;;;22.70;6.68;;;18.50;67.50;;;;;;5045320;28;20030;-63
2022/04/30 12:54:13;;;;;;;24.95;6.88;;;18.50;67.60;;;;;;5046918;28;20430;-63
2022/04/30 12:56:39;;;;;;;21.95;6.25;;;18.50;67.80;;;;;;5061657;28;20020;-63
2022/04/30 12:59:05;;;;;;;32.75;6.68;;;18.50;68.00;;;;;;5047289;28;20031;-62
2022/04/30 13:01:33;;;;;;;27.80;6.95;;;18.50;68.10;;;;;;5059362;28;20040;-63
2022/04/30 13:03:58;;;;;;;29.40;7.65;;;18.40;68.50;;;;;;5047062;28;20051;-62
2022/04/30 13:06:24;;;;;;;39.00;7.63;;;18.50;68.50;;;;;;5045740;28;20647;-62
2022/04/30 13:14:18;;;;;;;38.15;9.23;;;18.40;69.60;;;;;;5058017;28;20046;-62
2022/04/30 13:16:43;;;;;;;37.05;8.65;;;18.40;70.30;;;;;;5057633;28;20024;-63
2022/04/30 13:19:10;;;;;;;37.67;8.65;;;18.40;70.10;;;;;;5027125;28;20032;-62
2022/04/30 13:21:36;;;;;;;50.13;8.82;;;18.40;70.60;;;;;;5076509;28;20028;-62
2022/04/30 13:24:02;;;;;;;52.65;8.95;;;18.40;71.10;;;;;;5060260;28;20077;-63
2022/04/30 13:26:28;;;;;;;46.53;9.00;;;18.40;69.80;;;;;;5054548;28;20457;-63